createdAt,value
2023-01-26T00:01:01.098Z,100482.00
2023-01-26T00:03:34.237Z,100466.72
2023-01-26T00:06:06.862Z,100469.63
2023-01-26T00:08:38.776Z,100465.59
2023-01-26T00:11:08.225Z,100458.38
2023-01-26T00:13:40.169Z,100459.31
2023-01-26T00:16:16.595Z,100457.13
2023-01-26T00:18:50.840Z,100466.84
2023-01-26T00:21:22.219Z,100450.59
2023-01-26T00:23:52.211Z,100464.38
2023-01-26T00:26:23.012Z,100467.00
2023-01-26T00:28:59.138Z,100455.34
2023-01-26T00:31:29.613Z,100462.94
2023-01-26T00:34:04.559Z,100443.97
2023-01-26T00:36:39.444Z,100440.22
2023-01-26T00:39:08.612Z,100447.50
2023-01-26T00:41:50.875Z,100443.81
2023-01-26T00:44:33.113Z,100451.38
2023-01-26T00:47:03.704Z,100455.56
2023-01-26T00:49:33.801Z,100446.00
2023-01-26T00:52:03.235Z,100455.06
2023-01-26T00:54:32.609Z,100459.34
2023-01-26T00:57:06.809Z,100428.06
2023-01-26T00:59:39.976Z,100441.22
2023-01-26T01:02:09.329Z,100435.34
2023-01-26T01:04:43.558Z,100434.84
2023-01-26T01:07:12.890Z,100434.69
2023-01-26T01:09:42.109Z,100428.34
2023-01-26T01:12:16.352Z,100428.19
2023-01-26T01:14:52.485Z,100437.72
2023-01-26T01:17:21.700Z,100436.16
2023-01-26T01:19:50.832Z,100431.22
2023-01-26T01:22:25.141Z,100418.75
2023-01-26T01:24:55.295Z,100420.78
2023-01-26T01:27:25.443Z,100422.50
2023-01-26T01:29:56.511Z,100422.50
2023-01-26T01:32:26.164Z,100427.44
2023-01-26T01:34:55.217Z,100414.25
2023-01-26T01:37:24.909Z,100431.78
2023-01-26T01:39:54.270Z,100421.22
2023-01-26T01:42:28.734Z,100428.41
2023-01-26T01:45:32.732Z,100420.38
2023-01-26T01:48:15.177Z,100428.91
2023-01-26T01:50:46.276Z,100425.66
2023-01-26T01:53:24.110Z,100431.66
2023-01-26T01:55:57.686Z,100415.44
2023-01-26T01:58:28.616Z,100423.19
2023-01-26T02:00:58.994Z,100410.72
2023-01-26T02:03:32.102Z,100428.19
2023-01-26T02:06:12.624Z,100426.66
2023-01-26T02:08:45.614Z,100426.88
2023-01-26T02:11:20.224Z,100413.56
2023-01-26T02:13:50.871Z,100427.28
2023-01-26T02:16:25.172Z,100423.72
2023-01-26T02:18:56.914Z,100409.72
2023-01-26T02:21:27.043Z,100410.88
2023-01-26T02:24:12.869Z,100424.88
2023-01-26T02:26:50.128Z,100408.47
2023-01-26T02:29:19.657Z,100412.41
2023-01-26T02:31:50.109Z,100410.94
2023-01-26T02:34:24.406Z,100393.97
2023-01-26T02:37:04.644Z,100397.91
2023-01-26T02:39:46.870Z,100379.25
2023-01-26T02:42:33.312Z,100383.25
2023-01-26T02:45:08.772Z,100376.59
2023-01-26T02:50:12.320Z,100382.34
2023-01-26T02:52:41.783Z,100393.13
2023-01-26T02:55:27.941Z,100383.06
2023-01-26T02:58:01.702Z,100381.22
2023-01-26T03:00:36.745Z,100377.19
2023-01-26T03:03:13.633Z,100372.41
2023-01-26T03:05:49.255Z,100369.94
2023-01-26T03:08:18.555Z,100370.81
2023-01-26T03:10:49.115Z,100367.97
2023-01-26T03:13:21.993Z,100381.22
2023-01-26T03:16:02.237Z,100379.94
2023-01-26T03:18:44.422Z,100371.63
2023-01-26T03:21:28.995Z,100372.91
2023-01-26T03:24:11.463Z,100357.69
2023-01-26T03:29:32.221Z,100379.81
2023-01-26T03:32:03.820Z,100378.19
2023-01-26T03:34:39.164Z,100371.31
2023-01-26T03:37:08.524Z,100374.59
2023-01-26T03:42:56.522Z,100375.59
2023-01-26T03:45:40.241Z,100376.44
2023-01-26T03:48:32.874Z,100378.63
2023-01-26T03:51:16.693Z,100377.47
2023-01-26T03:53:59.195Z,100382.75
2023-01-26T03:56:32.100Z,100370.94
2023-01-26T03:59:10.628Z,100361.50
2023-01-26T04:01:58.868Z,100368.41
2023-01-26T04:04:41.019Z,100364.06
2023-01-26T04:07:23.586Z,100369.34
2023-01-26T04:09:53.966Z,100362.63
2023-01-26T04:12:23.197Z,100366.09
2023-01-26T04:18:23.349Z,100359.13
2023-01-26T04:21:11.958Z,100300.94
2023-01-26T04:23:43.896Z,100356.16
2023-01-26T04:26:13.295Z,100378.91
2023-01-26T04:28:42.802Z,100375.44
2023-01-26T04:31:17.420Z,100377.34
2023-01-26T04:33:51.090Z,100367.34
2023-01-26T04:36:25.513Z,100371.50
2023-01-26T04:38:54.984Z,100372.47
2023-01-26T04:41:31.896Z,100372.63
2023-01-26T04:44:06.677Z,100357.47
2023-01-26T04:46:36.074Z,100370.22
2023-01-26T04:49:08.143Z,100382.56
2023-01-26T04:51:37.700Z,100383.97
2023-01-26T04:54:06.980Z,100360.16
2023-01-26T04:56:39.923Z,100367.13
2023-01-26T04:59:09.925Z,100373.69
2023-01-26T05:01:49.135Z,100358.63
2023-01-26T05:04:25.309Z,100354.44
2023-01-26T05:07:01.064Z,100329.81
2023-01-26T05:09:32.495Z,100304.19
2023-01-26T05:12:37.094Z,100342.75
2023-01-26T05:15:32.429Z,100350.81
2023-01-26T05:20:58.159Z,100355.59
2023-01-26T05:23:40.738Z,100353.69
2023-01-26T05:26:31.780Z,100337.16
2023-01-26T05:29:05.496Z,100340.72
2023-01-26T05:31:34.936Z,100363.34
2023-01-26T05:34:04.058Z,100363.41
2023-01-26T05:36:43.351Z,100355.31
2023-01-26T05:39:21.743Z,100354.72
2023-01-26T05:41:56.256Z,100360.50
2023-01-26T05:44:45.722Z,100345.16
2023-01-26T05:47:16.927Z,100341.09
2023-01-26T05:49:49.991Z,100357.13
2023-01-26T05:52:31.301Z,100356.22
2023-01-26T05:55:01.724Z,100339.81
2023-01-26T05:57:42.781Z,100363.03
2023-01-26T06:00:15.310Z,100359.59
2023-01-26T06:02:58.465Z,100361.97
2023-01-26T06:05:28.103Z,100345.88
2023-01-26T06:07:59.766Z,100359.22
2023-01-26T06:10:40.802Z,100364.66
2023-01-26T06:13:27.168Z,100351.09
2023-01-26T06:16:04.995Z,100355.66
2023-01-26T06:18:37.873Z,100352.25
2023-01-26T06:21:08.574Z,100327.91
2023-01-26T06:23:39.704Z,100339.75
2023-01-26T06:26:12.836Z,100318.47
2023-01-26T06:28:42.106Z,100343.00
2023-01-26T06:31:12.529Z,100325.50
2023-01-26T06:33:43.357Z,100319.47
2023-01-26T06:36:15.731Z,100333.38
2023-01-26T06:38:58.607Z,100341.78
2023-01-26T06:41:30.567Z,100336.31
2023-01-26T06:44:04.859Z,100325.56
2023-01-26T06:46:34.473Z,100336.25
2023-01-26T06:49:04.636Z,100320.03
2023-01-26T06:51:49.148Z,100311.91
2023-01-26T06:54:20.838Z,100332.22
2023-01-26T06:57:10.480Z,100323.88
2023-01-26T06:59:42.658Z,100331.41
2023-01-26T07:02:22.359Z,100323.31
2023-01-26T07:04:52.625Z,100328.84
2023-01-26T07:07:26.981Z,100338.78
2023-01-26T07:09:58.038Z,100336.66
2023-01-26T07:12:27.491Z,100336.91
2023-01-26T07:14:56.822Z,100323.28
2023-01-26T07:17:25.939Z,100342.13
2023-01-26T07:19:55.100Z,100306.06
2023-01-26T07:22:24.342Z,100335.66
2023-01-26T07:24:53.518Z,100336.72
2023-01-26T07:27:29.818Z,100330.38
2023-01-26T07:29:59.006Z,100339.59
2023-01-26T07:32:28.171Z,100334.53
2023-01-26T07:34:57.590Z,100315.41
2023-01-26T07:37:29.979Z,100325.47
2023-01-26T07:39:59.257Z,100326.38
2023-01-26T07:42:30.531Z,100333.09
2023-01-26T07:45:06.638Z,100329.69
2023-01-26T07:47:38.048Z,100325.41
2023-01-26T07:50:08.660Z,100311.78
2023-01-26T07:52:37.920Z,100309.78
2023-01-26T07:55:08.263Z,100326.56
2023-01-26T07:57:39.334Z,100320.00
2023-01-26T08:00:11.779Z,100317.66
2023-01-26T08:02:44.915Z,100315.06
2023-01-26T08:05:14.208Z,100290.13
2023-01-26T08:07:43.433Z,100315.72
2023-01-26T08:10:18.135Z,100319.44
2023-01-26T08:12:49.361Z,100305.22
2023-01-26T08:15:19.054Z,100308.78
2023-01-26T08:17:54.548Z,100306.38
2023-01-26T08:20:24.366Z,100304.06
2023-01-26T08:22:53.406Z,100292.19
2023-01-26T08:25:22.547Z,100304.03
2023-01-26T08:27:55.899Z,100288.72
2023-01-26T08:30:30.207Z,100292.94
2023-01-26T08:33:00.282Z,100297.91
2023-01-26T08:35:29.377Z,100285.84
2023-01-26T08:37:58.487Z,100269.22
2023-01-26T08:40:27.874Z,100283.50
2023-01-26T08:43:02.171Z,100291.72
2023-01-26T08:45:36.548Z,100295.34
2023-01-26T08:48:11.729Z,100283.47
2023-01-26T08:50:41.025Z,100280.72
2023-01-26T08:53:10.207Z,100288.59
2023-01-26T08:55:44.502Z,100291.56
2023-01-26T08:58:15.492Z,100289.03
2023-01-26T09:00:44.644Z,100264.91
2023-01-26T09:03:14.491Z,100287.34
2023-01-26T09:05:43.808Z,100281.22
2023-01-26T09:08:18.091Z,100290.38
2023-01-26T09:10:47.230Z,100267.88
2023-01-26T09:13:18.343Z,100282.88
2023-01-26T09:15:47.573Z,100281.50
2023-01-26T09:18:17.611Z,100278.16
2023-01-26T09:20:47.037Z,100268.56
2023-01-26T09:23:17.727Z,100282.53
2023-01-26T09:26:00.063Z,100271.00
2023-01-26T09:28:32.252Z,100282.00
2023-01-26T09:31:10.488Z,100275.13
2023-01-26T09:33:40.027Z,100263.34
2023-01-26T09:36:12.885Z,100263.47
2023-01-26T09:38:42.040Z,100253.88
2023-01-26T09:41:36.755Z,100256.44
2023-01-26T09:44:11.348Z,100259.31
2023-01-26T09:46:56.771Z,100263.31
2023-01-26T09:49:30.884Z,100228.84
2023-01-26T09:54:50.917Z,100250.09
2023-01-26T09:57:23.729Z,100251.22
2023-01-26T10:00:00.169Z,100250.50
2023-01-26T10:02:51.318Z,100254.03
2023-01-26T10:05:34.253Z,100247.78
2023-01-26T10:08:19.675Z,100251.84
2023-01-26T10:10:57.523Z,100223.34
2023-01-26T10:13:26.960Z,100240.81
2023-01-26T10:16:02.141Z,100252.84
2023-01-26T10:18:34.253Z,100258.06
2023-01-26T10:21:05.405Z,100247.41
2023-01-26T10:23:36.276Z,100264.50
2023-01-26T10:26:14.688Z,100260.13
2023-01-26T10:28:51.004Z,100229.91
2023-01-26T10:31:24.434Z,100248.16
2023-01-26T10:34:01.740Z,100255.84
2023-01-26T10:36:33.566Z,100235.56
2023-01-26T10:39:07.560Z,100237.38
2023-01-26T10:41:36.830Z,100242.47
2023-01-26T10:44:30.208Z,100235.75
2023-01-26T10:47:15.766Z,100228.16
2023-01-26T10:49:50.629Z,100222.78
2023-01-26T10:52:21.283Z,100197.13
2023-01-26T10:55:18.409Z,100187.78
2023-01-26T10:57:47.671Z,100201.19
2023-01-26T11:00:33.234Z,100195.00
2023-01-26T11:03:21.850Z,100200.25
2023-01-26T11:06:07.883Z,100189.41
2023-01-26T11:08:38.862Z,100186.25
2023-01-26T11:11:10.118Z,100196.38
2023-01-26T11:13:39.513Z,100191.28
2023-01-26T11:16:29.600Z,100174.66
2023-01-26T11:19:04.682Z,100183.59
2023-01-26T11:21:39.363Z,100180.47
2023-01-26T11:24:20.757Z,100164.72
2023-01-26T11:27:31.556Z,100171.81
2023-01-26T11:30:34.861Z,100174.59
2023-01-26T11:33:13.677Z,100172.06
2023-01-26T11:35:53.608Z,100181.66
2023-01-26T11:38:37.880Z,100172.44
2023-01-26T11:41:30.412Z,100164.03
2023-01-26T11:44:33.447Z,100153.28
2023-01-26T11:47:35.267Z,100161.72
2023-01-26T11:50:20.490Z,100181.38
2023-01-26T11:53:13.877Z,100166.91
2023-01-26T11:56:12.026Z,100171.44
2023-01-26T11:58:47.702Z,100172.50
2023-01-26T12:01:25.509Z,100157.66
2023-01-26T12:03:55.199Z,100155.75
2023-01-26T12:06:32.783Z,100166.41
2023-01-26T12:09:10.207Z,100162.00
2023-01-26T12:11:47.359Z,100163.91
2023-01-26T12:14:24.103Z,100159.63
2023-01-26T12:17:19.020Z,100152.63
2023-01-26T12:19:54.647Z,100116.59
2023-01-26T12:22:38.523Z,100166.34
2023-01-26T12:25:25.244Z,100146.00
2023-01-26T12:28:00.912Z,100150.81
2023-01-26T12:30:43.121Z,100151.88
2023-01-26T12:33:13.106Z,100159.34
2023-01-26T12:35:59.087Z,100153.28
2023-01-26T12:38:47.211Z,100150.84
2023-01-26T12:41:29.352Z,100150.81
2023-01-26T12:44:24.124Z,100153.34
2023-01-26T12:54:02.296Z,100139.31
2023-01-26T12:56:37.953Z,100146.03
2023-01-26T12:59:38.381Z,100139.31
2023-01-26T13:02:28.016Z,100146.50
2023-01-26T13:07:41.859Z,100157.16
2023-01-26T13:10:24.916Z,100162.13
2023-01-26T13:12:57.053Z,100147.22
2023-01-26T13:15:28.227Z,100148.47
2023-01-26T13:18:04.721Z,100163.03
2023-01-26T13:23:53.702Z,100159.63
2023-01-26T13:26:43.426Z,100161.53
2023-01-26T13:29:36.782Z,100171.59
2023-01-26T13:32:35.707Z,100168.91
2023-01-26T13:35:10.235Z,100148.13
2023-01-26T13:37:46.537Z,100152.06
2023-01-26T13:40:24.716Z,100160.53
2023-01-26T13:43:02.100Z,100156.19
2023-01-26T13:45:42.680Z,100166.25
2023-01-26T13:48:17.622Z,100148.19
2023-01-26T13:50:57.269Z,100165.69
2023-01-26T13:53:36.405Z,100152.97
2023-01-26T13:56:07.955Z,100162.69
2023-01-26T13:58:44.100Z,100162.69
2023-01-26T14:01:19.846Z,100169.41
2023-01-26T14:03:49.442Z,100181.31
2023-01-26T14:09:02.338Z,100170.19
2023-01-26T14:11:34.797Z,100176.22
2023-01-26T14:14:06.114Z,100166.56
2023-01-26T14:16:40.372Z,100144.78
2023-01-26T14:19:16.488Z,100169.22
2023-01-26T14:21:57.397Z,100169.16
2023-01-26T14:24:35.279Z,100162.47
2023-01-26T14:27:05.589Z,100156.19
2023-01-26T14:29:41.074Z,100167.47
2023-01-26T14:32:26.836Z,100125.94
2023-01-26T14:34:58.482Z,100161.53
2023-01-26T14:37:33.725Z,100159.63
2023-01-26T14:40:24.150Z,100157.03
2023-01-26T14:42:55.045Z,100151.84
2023-01-26T14:45:33.836Z,100158.63
2023-01-26T14:48:07.804Z,100164.34
2023-01-26T14:50:39.207Z,100160.78
2023-01-26T14:53:21.935Z,100152.97
2023-01-26T14:55:52.522Z,100153.25
2023-01-26T14:58:25.928Z,100157.31
2023-01-26T15:00:59.894Z,100144.41
2023-01-26T15:03:34.180Z,100156.19
2023-01-26T15:06:14.751Z,100161.28
2023-01-26T15:08:54.124Z,100150.44
2023-01-26T15:11:41.583Z,100156.31
2023-01-26T15:14:38.295Z,100140.94
2023-01-26T15:17:14.525Z,100148.16
2023-01-26T15:19:44.148Z,100156.13
2023-01-26T15:22:22.529Z,100136.03
2023-01-26T15:25:02.891Z,100154.38
2023-01-26T15:27:34.588Z,100150.88
2023-01-26T15:30:06.146Z,100153.53
2023-01-26T15:32:41.308Z,100157.66
2023-01-26T15:35:23.730Z,100144.69
2023-01-26T15:38:02.360Z,100155.84
2023-01-26T15:40:31.966Z,100144.56
2023-01-26T15:43:13.046Z,100144.63
2023-01-26T15:45:44.286Z,100158.94
2023-01-26T15:48:15.486Z,100117.50
2023-01-26T15:50:50.157Z,100152.91
2023-01-26T15:53:21.729Z,100153.47
2023-01-26T15:55:55.569Z,100144.03
2023-01-26T15:58:25.451Z,100139.56
2023-01-26T16:00:54.744Z,100133.88
2023-01-26T16:03:26.591Z,100129.53
2023-01-26T16:05:56.241Z,100134.41
2023-01-26T16:08:25.333Z,100118.69
2023-01-26T16:11:01.555Z,100139.63
2023-01-26T16:13:33.153Z,100133.53
2023-01-26T16:16:03.345Z,100101.56
2023-01-26T16:18:34.771Z,100135.88
2023-01-26T16:21:09.015Z,100128.72
2023-01-26T16:23:39.885Z,100137.47
2023-01-26T16:26:11.406Z,100126.16
2023-01-26T16:28:40.933Z,100123.25
2023-01-26T16:31:16.640Z,100133.66
2023-01-26T16:33:47.915Z,100141.16
2023-01-26T16:36:22.737Z,100138.63
2023-01-26T16:38:52.220Z,100136.88
2023-01-26T16:41:25.841Z,100128.47
2023-01-26T16:43:56.683Z,100136.94
2023-01-26T16:46:31.878Z,100137.69
2023-01-26T16:49:03.696Z,100127.59
2023-01-26T16:51:38.731Z,100095.19
2023-01-26T16:54:08.621Z,100142.31
2023-01-26T16:56:37.820Z,100148.25
2023-01-26T16:59:07.101Z,100152.34
2023-01-26T17:01:39.412Z,100140.56
2023-01-26T17:04:12.562Z,100150.22
2023-01-26T17:06:41.909Z,100148.66
2023-01-26T17:09:11.005Z,100143.69
2023-01-26T17:11:40.346Z,100139.53
2023-01-26T17:14:10.574Z,100134.09
2023-01-26T17:16:45.098Z,100137.59
2023-01-26T17:19:16.344Z,100138.63
2023-01-26T17:21:45.368Z,100147.16
2023-01-26T17:24:14.647Z,100140.38
2023-01-26T17:26:44.052Z,100142.06
2023-01-26T17:29:14.073Z,100144.72
2023-01-26T17:31:43.379Z,100144.72
2023-01-26T17:34:12.658Z,100127.81
2023-01-26T17:36:55.407Z,100140.38
2023-01-26T17:39:24.647Z,100151.97
2023-01-26T17:41:54.279Z,100151.13
2023-01-26T17:44:24.344Z,100153.78
2023-01-26T17:46:53.557Z,100153.59
2023-01-26T17:49:24.579Z,100136.44
2023-01-26T17:51:55.832Z,100141.31
2023-01-26T17:54:31.325Z,100150.00
2023-01-26T17:57:03.544Z,100140.84
2023-01-26T17:59:32.774Z,100143.31
2023-01-26T18:02:01.906Z,100143.31
2023-01-26T18:04:32.134Z,100146.84
2023-01-26T18:07:03.674Z,100142.69
2023-01-26T18:09:33.116Z,100140.09
2023-01-26T18:12:02.156Z,100134.88
2023-01-26T18:14:36.461Z,100128.81
2023-01-26T18:17:05.600Z,100112.59
2023-01-26T18:19:39.916Z,100126.47
2023-01-26T18:22:11.082Z,100097.22
2023-01-26T18:24:40.365Z,100115.94
2023-01-26T18:27:09.621Z,100119.59
2023-01-26T18:29:39.358Z,100116.19
2023-01-26T18:32:08.739Z,100115.88
2023-01-26T18:34:40.493Z,100124.34
2023-01-26T18:37:12.630Z,100110.53
2023-01-26T18:39:41.958Z,100115.94
2023-01-26T18:42:11.062Z,100120.91
2023-01-26T18:44:40.316Z,100111.47
2023-01-26T18:47:09.879Z,100120.91
2023-01-26T18:49:38.950Z,100116.63
2023-01-26T18:52:11.159Z,100112.28
2023-01-26T18:54:40.576Z,100110.53
2023-01-26T18:57:10.707Z,100111.59
2023-01-26T18:59:39.972Z,100103.25
2023-01-26T19:02:09.372Z,100104.19
2023-01-26T19:04:40.378Z,100106.66
2023-01-26T19:07:17.439Z,100113.41
2023-01-26T19:09:47.145Z,100111.00
2023-01-26T19:12:16.288Z,100116.00
2023-01-26T19:14:45.686Z,100103.94
2023-01-26T19:17:21.447Z,100106.78
2023-01-26T19:19:50.827Z,100085.38
2023-01-26T19:22:21.881Z,100101.03
2023-01-26T19:24:51.092Z,100100.97
2023-01-26T19:27:20.771Z,100096.81
2023-01-26T19:32:32.156Z,100087.41
2023-01-26T19:35:01.269Z,100094.88
2023-01-26T19:37:34.852Z,100096.69
2023-01-26T19:40:04.139Z,100111.72
2023-01-26T19:42:33.301Z,100090.16
2023-01-26T19:45:08.411Z,100088.81
2023-01-26T19:47:37.539Z,100094.03
2023-01-26T19:50:07.501Z,100099.09
2023-01-26T19:52:38.579Z,100089.56
2023-01-26T19:55:08.313Z,100095.53
2023-01-26T19:57:37.999Z,100092.81
2023-01-26T20:00:08.903Z,100082.31
2023-01-26T20:02:41.756Z,100084.22
2023-01-26T20:05:21.988Z,100062.63
2023-01-26T20:07:59.429Z,100090.22
2023-01-26T20:10:28.939Z,100084.84
2023-01-26T20:13:00.785Z,100081.25
2023-01-26T20:18:05.207Z,100083.25
2023-01-26T20:20:34.738Z,100084.59
2023-01-26T20:23:16.140Z,100094.81
2023-01-26T20:25:47.225Z,100102.59
2023-01-26T20:28:17.372Z,100042.25
2023-01-26T20:30:47.136Z,100089.25
2023-01-26T20:33:16.730Z,100084.47
2023-01-26T20:35:50.924Z,100069.75
2023-01-26T20:38:22.220Z,100097.28
2023-01-26T20:40:53.019Z,100101.63
2023-01-26T20:43:22.247Z,100090.69
2023-01-26T20:45:57.443Z,100086.78
2023-01-26T20:48:26.642Z,100082.41
2023-01-26T20:50:55.740Z,100076.81
2023-01-26T20:53:27.293Z,100054.84
2023-01-26T20:55:59.915Z,100090.63
2023-01-26T20:58:30.486Z,100083.75
2023-01-26T21:01:05.517Z,100081.22
2023-01-26T21:03:40.990Z,100082.38
2023-01-26T21:06:13.069Z,100076.97
2023-01-26T21:08:51.995Z,100077.22
2023-01-26T21:11:22.719Z,100080.44
2023-01-26T21:13:51.871Z,100047.25
2023-01-26T21:16:26.927Z,100065.75
2023-01-26T21:18:56.221Z,100035.25
2023-01-26T21:21:31.542Z,100088.19
2023-01-26T21:24:02.884Z,100082.97
2023-01-26T21:26:32.488Z,100083.41
2023-01-26T21:29:02.060Z,100081.47
2023-01-26T21:31:32.960Z,100058.97
2023-01-26T21:34:03.158Z,100064.72
2023-01-26T21:36:39.204Z,100082.84
2023-01-26T21:39:15.044Z,100061.22
2023-01-26T21:42:04.344Z,100087.94
2023-01-26T21:44:55.188Z,100079.41
2023-01-26T21:47:24.782Z,100076.03
2023-01-26T21:49:58.997Z,100072.31
2023-01-26T21:52:46.241Z,100082.72
2023-01-26T21:55:17.580Z,100084.06
2023-01-26T21:58:15.209Z,100088.03
2023-01-26T22:00:44.566Z,100077.63
2023-01-26T22:03:13.784Z,100076.00
2023-01-26T22:05:53.734Z,100093.81
2023-01-26T22:08:23.229Z,100094.69
2023-01-26T22:11:00.501Z,100092.38
2023-01-26T22:13:30.516Z,100095.81
2023-01-26T22:16:04.428Z,100098.50
2023-01-26T22:18:33.961Z,100072.00
2023-01-26T22:21:03.418Z,100074.75
2023-01-26T22:23:33.894Z,100085.97
2023-01-26T22:26:12.516Z,100067.06
2023-01-26T22:28:49.529Z,100081.56
2023-01-26T22:31:22.100Z,100078.03
2023-01-26T22:33:51.512Z,100084.16
2023-01-26T22:36:32.939Z,100091.22
2023-01-26T22:39:02.350Z,100088.63
2023-01-26T22:41:39.088Z,100089.53
2023-01-26T22:44:14.210Z,100082.69
2023-01-26T22:46:43.781Z,100079.28
2023-01-26T22:49:12.901Z,100084.03
2023-01-26T22:51:42.024Z,100086.50
2023-01-26T22:54:11.513Z,100065.63
2023-01-26T22:56:47.570Z,100079.69
2023-01-26T22:59:16.921Z,100073.47
2023-01-26T23:01:46.025Z,100069.06
2023-01-26T23:04:20.415Z,100060.00
2023-01-26T23:06:49.752Z,100064.47
2023-01-26T23:09:19.008Z,100077.03
2023-01-26T23:12:03.329Z,100073.44
2023-01-26T23:14:42.838Z,100069.28
2023-01-26T23:17:17.762Z,100079.28
2023-01-26T23:19:47.195Z,100087.09
2023-01-26T23:22:16.928Z,100078.56
2023-01-26T23:25:06.794Z,100089.44
2023-01-26T23:27:37.967Z,100084.38
2023-01-26T23:30:08.304Z,100074.88
2023-01-26T23:32:37.695Z,100087.44
2023-01-26T23:35:12.254Z,100082.50
2023-01-26T23:37:41.423Z,100080.97
2023-01-26T23:40:12.252Z,100080.28
2023-01-26T23:43:00.265Z,100051.81
2023-01-26T23:45:38.178Z,100061.16
2023-01-26T23:48:08.349Z,100071.22
2023-01-26T23:50:42.923Z,100073.41
2023-01-26T23:53:12.646Z,100086.22
2023-01-26T23:55:43.184Z,100081.91
2023-01-26T23:58:14.393Z,100063.00
